Yumenzhen, China
Current Conditions -  °F | °C
As of 4:00 PM on Saturday 25 Oct 2014 (Local Time) from ZLLL Reporting Station
Clear Clear  
Wind Chill: 64°   Ceiling: Unl
Heat Index: 64°   Visibility: 6mi
Dew Point: 32°   Wind: 7mph
Humidity: 30%   Direction: 130°SE
Pressure: 30.09"   Gusts: NA
Location:  40.27°N, 97.03°E
Report Text: ZLLL 250800Z 13003MPS 070V170 CAVOK 18/00 Q1019 NOSIG
Loading
Personal Weather Stations






























Interactive Weather Map
Tropical Storm Tracking
New forecast layout! Learn more

10-Day Weather Forecast

Advertisements
Track Severe Weather on mobile